sensor_id;sensor_type;location;lat;lon;timestamp;pressure;altitude;pressure_sealevel;temperature;humidity
29163;BME280;20331;53.144;8.208;2023-03-21T00:02:32;101699.72;;;9.65;96.33
29163;BME280;20331;53.144;8.208;2023-03-21T00:12:54;101693.72;;;9.63;96.56
29163;BME280;20331;53.144;8.208;2023-03-21T00:23:18;101692.84;;;9.66;96.09
29163;BME280;20331;53.144;8.208;2023-03-21T00:33:40;101684.19;;;9.70;95.87
29163;BME280;20331;53.144;8.208;2023-03-21T00:44:01;101670.44;;;9.68;96.12
29163;BME280;20331;53.144;8.208;2023-03-21T00:54:24;101647.16;;;9.69;96.12
29163;BME280;20331;53.144;8.208;2023-03-21T01:04:46;101638.56;;;9.67;96.53
29163;BME280;20331;53.144;8.208;2023-03-21T01:15:07;101635.06;;;9.71;97.12
29163;BME280;20331;53.144;8.208;2023-03-21T01:25:29;101631.56;;;9.75;97.72
29163;BME280;20331;53.144;8.208;2023-03-21T01:35:50;101624.63;;;9.79;97.17
29163;BME280;20331;53.144;8.208;2023-03-21T01:56:52;101610.78;;;9.83;97.50
29163;BME280;20331;53.144;8.208;2023-03-21T02:07:15;101600.41;;;9.84;97.03
29163;BME280;20331;53.144;8.208;2023-03-21T02:17:42;101588.31;;;9.86;97.86
29163;BME280;20331;53.144;8.208;2023-03-21T02:28:20;101590.00;;;9.89;96.93
29163;BME280;20331;53.144;8.208;2023-03-21T02:38:51;101572.78;;;9.88;98.10
29163;BME280;20331;53.144;8.208;2023-03-21T02:49:56;101564.16;;;9.89;98.00
29163;BME280;20331;53.144;8.208;2023-03-21T02:59:58;101570.16;;;9.91;97.82
29163;BME280;20331;53.144;8.208;2023-03-21T03:21:07;101551.19;;;9.92;98.02
29163;BME280;20331;53.144;8.208;2023-03-21T03:31:35;101558.06;;;9.93;98.99
29163;BME280;20331;53.144;8.208;2023-03-21T03:41:59;101549.38;;;9.97;99.03
29163;BME280;20331;53.144;8.208;2023-03-21T03:52:39;101552.81;;;9.97;98.10
29163;BME280;20331;53.144;8.208;2023-03-21T04:03:16;101551.94;;;9.98;99.18
29163;BME280;20331;53.144;8.208;2023-03-21T04:13:38;101547.56;;;10.02;99.40
29163;BME280;20331;53.144;8.208;2023-03-21T04:24:00;101532.84;;;10.07;98.27
29163;BME280;20331;53.144;8.208;2023-03-21T04:34:21;101529.41;;;10.06;99.50
29163;BME280;20331;53.144;8.208;2023-03-21T04:44:44;101523.31;;;10.12;98.96
29163;BME280;20331;53.144;8.208;2023-03-21T04:55:06;101512.91;;;10.15;99.02
29163;BME280;20331;53.144;8.208;2023-03-21T05:05:30;101507.72;;;10.15;99.02
29163;BME280;20331;53.144;8.208;2023-03-21T05:15:51;101511.09;;;10.20;97.45
29163;BME280;20331;53.144;8.208;2023-03-21T05:26:13;101504.28;;;10.16;97.95
29163;BME280;20331;53.144;8.208;2023-03-21T05:36:34;101507.63;;;10.21;99.06
29163;BME280;20331;53.144;8.208;2023-03-21T05:46:56;101495.47;;;10.26;99.04
29163;BME280;20331;53.144;8.208;2023-03-21T05:57:17;101486.72;;;10.33;97.84
29163;BME280;20331;53.144;8.208;2023-03-21T06:07:39;101485.00;;;10.32;97.72
29163;BME280;20331;53.144;8.208;2023-03-21T06:18:02;101484.94;;;10.35;97.92
29163;BME280;20331;53.144;8.208;2023-03-21T06:28:23;101487.53;;;10.35;96.56
29163;BME280;20331;53.144;8.208;2023-03-21T06:38:44;101488.47;;;10.31;97.16
29163;BME280;20331;53.144;8.208;2023-03-21T06:49:07;101487.59;;;10.32;97.23
29163;BME280;20331;53.144;8.208;2023-03-21T06:59:29;101491.88;;;10.33;98.06
29163;BME280;20331;53.144;8.208;2023-03-21T07:09:51;101490.09;;;10.38;99.21
29163;BME280;20331;53.144;8.208;2023-03-21T07:20:12;101492.59;;;10.41;97.53
29163;BME280;20331;53.144;8.208;2023-03-21T07:30:34;101488.16;;;10.49;97.34
29163;BME280;20331;53.144;8.208;2023-03-21T07:40:57;101494.13;;;10.51;97.79
29163;BME280;20331;53.144;8.208;2023-03-21T07:51:18;101494.88;;;10.58;97.96
29163;BME280;20331;53.144;8.208;2023-03-21T08:01:40;101481.06;;;10.57;97.56
29163;BME280;20331;53.144;8.208;2023-03-21T08:12:02;101490.47;;;10.63;97.21
29163;BME280;20331;53.144;8.208;2023-03-21T08:22:24;101474.75;;;10.72;95.41
29163;BME280;20331;53.144;8.208;2023-03-21T08:32:45;101482.44;;;10.76;95.19
29163;BME280;20331;53.144;8.208;2023-03-21T08:43:07;101475.53;;;10.75;96.95
29163;BME280;20331;53.144;8.208;2023-03-21T08:53:29;101473.84;;;10.74;95.64
29163;BME280;20331;53.144;8.208;2023-03-21T09:03:50;101473.88;;;10.73;96.88
29163;BME280;20331;53.144;8.208;2023-03-21T09:14:11;101473.84;;;10.74;96.81
29163;BME280;20331;53.144;8.208;2023-03-21T09:24:33;101473.66;;;10.83;95.93
29163;BME280;20331;53.144;8.208;2023-03-21T09:34:54;101465.75;;;10.89;97.31
29163;BME280;20331;53.144;8.208;2023-03-21T09:45:18;101473.38;;;10.95;96.30
29163;BME280;20331;53.144;8.208;2023-03-21T09:55:41;101465.59;;;10.95;96.23
29163;BME280;20331;53.144;8.208;2023-03-21T10:06:11;101466.34;;;11.02;98.49
29163;BME280;20331;53.144;8.208;2023-03-21T10:16:45;101455.88;;;11.06;97.46
29163;BME280;20331;53.144;8.208;2023-03-21T10:27:08;101452.53;;;11.01;96.27
29163;BME280;20331;53.144;8.208;2023-03-21T10:37:33;101445.47;;;11.09;96.21
29163;BME280;20331;53.144;8.208;2023-03-21T10:47:56;101446.09;;;11.21;95.59
29163;BME280;20331;53.144;8.208;2023-03-21T10:58:19;101437.09;;;11.35;98.74
29163;BME280;20331;53.144;8.208;2023-03-21T11:08:53;101419.56;;;11.45;95.94
29163;BME280;20331;53.144;8.208;2023-03-21T11:19:17;101414.94;;;11.59;94.75
29163;BME280;20331;53.144;8.208;2023-03-21T11:29:39;101409.59;;;11.63;94.96
29163;BME280;20331;53.144;8.208;2023-03-21T11:40:21;101399.13;;;11.69;93.68
29163;BME280;20331;53.144;8.208;2023-03-21T11:50:44;101399.19;;;11.68;95.16
29163;BME280;20331;53.144;8.208;2023-03-21T12:43:02;101356.28;;;11.55;94.58
29163;BME280;20331;53.144;8.208;2023-03-21T13:04:24;101324.81;;;11.70;94.63
29163;BME280;20331;53.144;8.208;2023-03-21T13:14:40;101309.16;;;11.73;94.13
29163;BME280;20331;53.144;8.208;2023-03-21T13:25:05;101300.66;;;11.68;95.02
29163;BME280;20331;53.144;8.208;2023-03-21T13:35:35;101274.47;;;11.77;93.80
29163;BME280;20331;53.144;8.208;2023-03-21T13:46:18;101286.47;;;11.81;92.44
29163;BME280;20331;53.144;8.208;2023-03-21T13:57:35;101267.25;;;11.88;92.85
29163;BME280;20331;53.144;8.208;2023-03-21T14:07:55;101239.53;;;11.90;94.58
29163;BME280;20331;53.144;8.208;2023-03-21T14:18:30;101230.75;;;11.94;92.20
29163;BME280;20331;53.144;8.208;2023-03-21T14:39:55;101224.69;;;11.95;91.69
29163;BME280;20331;53.144;8.208;2023-03-21T14:50:18;101213.41;;;11.96;93.00
29163;BME280;20331;53.144;8.208;2023-03-21T15:00:39;101212.56;;;11.95;92.13
29163;BME280;20331;53.144;8.208;2023-03-21T15:11:05;101197.78;;;11.99;92.45
29163;BME280;20331;53.144;8.208;2023-03-21T15:21:29;101180.97;;;12.10;92.59
29163;BME280;20331;53.144;8.208;2023-03-21T15:31:52;101172.16;;;12.16;91.79
29163;BME280;20331;53.144;8.208;2023-03-21T15:52:54;101146.72;;;12.27;91.48
29163;BME280;20331;53.144;8.208;2023-03-21T16:03:17;101133.38;;;12.39;90.35
29163;BME280;20331;53.144;8.208;2023-03-21T16:13:41;101133.19;;;12.45;89.92
29163;BME280;20331;53.144;8.208;2023-03-21T16:24:03;101129.25;;;12.58;89.23
29163;BME280;20331;53.144;8.208;2023-03-21T16:34:24;101141.53;;;12.53;88.74
29163;BME280;20331;53.144;8.208;2023-03-21T16:44:47;101131.84;;;12.58;88.44
29163;BME280;20331;53.144;8.208;2023-03-21T16:55:08;101132.81;;;12.56;88.46
29163;BME280;20331;53.144;8.208;2023-03-21T17:05:30;101123.56;;;12.47;88.88
29163;BME280;20331;53.144;8.208;2023-03-21T17:15:51;101127.06;;;12.46;88.08
29163;BME280;20331;53.144;8.208;2023-03-21T17:26:34;101124.53;;;12.45;87.53
29163;BME280;20331;53.144;8.208;2023-03-21T17:36:54;101116.88;;;12.40;88.02
29163;BME280;20331;53.144;8.208;2023-03-21T17:47:15;101127.56;;;12.31;88.90
29163;BME280;20331;53.144;8.208;2023-03-21T17:57:37;101124.91;;;12.33;87.87
29163;BME280;20331;53.144;8.208;2023-03-21T18:07:59;101134.47;;;12.32;87.79
29163;BME280;20331;53.144;8.208;2023-03-21T18:18:35;101141.44;;;12.30;88.01
29163;BME280;20331;53.144;8.208;2023-03-21T18:28:58;101135.34;;;12.31;87.58
29163;BME280;20331;53.144;8.208;2023-03-21T18:39:39;101143.13;;;12.31;88.14
29163;BME280;20331;53.144;8.208;2023-03-21T18:50:05;101162.09;;;12.33;88.01
29163;BME280;20331;53.144;8.208;2023-03-21T19:00:36;101155.13;;;12.35;87.80
29163;BME280;20331;53.144;8.208;2023-03-21T19:10:58;101166.50;;;12.31;87.18
29163;BME280;20331;53.144;8.208;2023-03-21T19:21:25;101154.72;;;12.21;88.27
29163;BME280;20331;53.144;8.208;2023-03-21T19:31:47;101139.53;;;12.09;88.07
29163;BME280;20331;53.144;8.208;2023-03-21T19:42:11;101142.34;;;12.01;88.72
29163;BME280;20331;53.144;8.208;2023-03-21T19:52:37;101137.50;;;11.91;89.62
29163;BME280;20331;53.144;8.208;2023-03-21T20:02:59;101135.94;;;11.85;89.62
29163;BME280;20331;53.144;8.208;2023-03-21T20:13:20;101136.16;;;11.78;89.62
29163;BME280;20331;53.144;8.208;2023-03-21T20:23:42;101121.56;;;11.75;90.62
29163;BME280;20331;53.144;8.208;2023-03-21T20:34:04;101127.56;;;11.76;90.90
29163;BME280;20331;53.144;8.208;2023-03-21T20:44:25;101123.47;;;11.69;90.10
29163;BME280;20331;53.144;8.208;2023-03-21T20:55:07;101118.41;;;11.66;91.44
29163;BME280;20331;53.144;8.208;2023-03-21T21:05:31;101102.84;;;11.66;90.58
29163;BME280;20331;53.144;8.208;2023-03-21T21:15:55;101100.09;;;11.70;89.38
29163;BME280;20331;53.144;8.208;2023-03-21T21:26:16;101092.44;;;11.67;89.25
29163;BME280;20331;53.144;8.208;2023-03-21T21:36:38;101087.19;;;11.69;88.79
29163;BME280;20331;53.144;8.208;2023-03-21T21:46:59;101078.38;;;11.74;88.34
29163;BME280;20331;53.144;8.208;2023-03-21T21:57:24;101067.44;;;11.65;87.22
29163;BME280;20331;53.144;8.208;2023-03-21T22:07:46;101069.41;;;11.57;87.83
29163;BME280;20331;53.144;8.208;2023-03-21T22:18:08;101084.94;;;11.57;87.71
29163;BME280;20331;53.144;8.208;2023-03-21T22:28:30;101070.16;;;11.60;87.43
29163;BME280;20331;53.144;8.208;2023-03-21T22:38:51;101057.25;;;11.59;87.13
29163;BME280;20331;53.144;8.208;2023-03-21T22:49:13;101044.41;;;11.54;88.32
29163;BME280;20331;53.144;8.208;2023-03-21T22:59:34;101038.66;;;11.45;87.71
29163;BME280;20331;53.144;8.208;2023-03-21T23:09:55;101042.38;;;11.36;87.80
29163;BME280;20331;53.144;8.208;2023-03-21T23:20:17;101041.03;;;11.23;88.23
29163;BME280;20331;53.144;8.208;2023-03-21T23:30:38;101037.03;;;11.11;89.00
29163;BME280;20331;53.144;8.208;2023-03-21T23:41:05;101022.78;;;10.98;89.17
29163;BME280;20331;53.144;8.208;2023-03-21T23:51:26;101006.50;;;10.95;88.84
